CheckWX is a tool to help pilots better visualize weather data.  It is not intended as a substitute for an official pre-flight weather briefing.

12:21:51 UTC

GCLA METAR
La Palma Airport
Sta Cruz de la Palma, La Palma Island, Spain
Current

22 mins ago

GCLA 181200Z 03012KT 350V070 9999 FEW025 BKN040 17/12 Q1025
Observed
Feb-18 @ 12:00 UTC
Wind
  • 030° at 12 KTS
Visibility
10,000+ meters
Flight Rules
VFR
Cloud Levels
  • Few at 2,500' AGL
  • Broken at 4,000' AGL
Temperature
17°C / 63°F
Dewpoint
12°C / 54°F
Humidity
73%
Altimeter
30.27" Hg
Pressure
1024.92 hPa
Previous

52 mins ago

GCLA 181130Z 35010KT 310V050 9999 FEW020 BKN035 16/14 Q1025
Observed
Feb-18 @ 11:30 UTC
Wind
  • 350° at 10 KTS
Visibility
10,000+ meters
Flight Rules
VFR
Cloud Levels
  • Few at 2,000' AGL
  • Broken at 3,500' AGL
Temperature
16°C / 61°F
Dewpoint
14°C / 57°F
Humidity
88%
Altimeter
30.27" Hg
Pressure
1024.92 hPa
Previous

1 hour ago

GCLA 181100Z 02014KT 340V050 9999 FEW020 BKN035 17/12 Q1024
Observed
Feb-18 @ 11:00 UTC
Wind
  • 020° at 14 KTS
Visibility
10,000+ meters
Flight Rules
VFR
Cloud Levels
  • Few at 2,000' AGL
  • Broken at 3,500' AGL
Temperature
17°C / 63°F
Dewpoint
12°C / 54°F
Humidity
73%
Altimeter
30.24" Hg
Pressure
1023.92 hPa